Time;durP1;ratioP1;P1;durP2;ratioP2;P2;SDS_P1;SDS_P2;PMS_P1;PMS_P2;Temp;Humidity;BMP_temperature;BMP_pressure;BME280_temperature;BME280_humidity;BME280_pressure;Samples;Min_cycle;Max_cycle;Signal;HPM_P1;HPM_P2
2022/07/22 00:03:36;;;;;;;11.23;5.22;;;;;;;;;;10186274;28;20093;-61
2022/07/22 00:08:30;;;;;;;9.02;5.88;;;;;;;;;;10185374;28;20130;-62
2022/07/22 00:13:24;;;;;;;14.32;5.55;;;;;;;;;;10186613;28;20505;-61
2022/07/22 00:18:18;;;;;;;11.20;5.70;;;;;;;;;;10186898;28;20571;-62
2022/07/22 00:23:13;;;;;;;13.27;5.57;;;;;;;;;;10186531;28;20048;-62
2022/07/22 00:28:06;;;;;;;10.98;5.78;;;;;;;;;;10184618;28;20491;-63
2022/07/22 00:33:00;;;;;;;12.52;5.63;;;;;;;;;;10186137;28;20047;-61
2022/07/22 00:37:53;;;;;;;10.15;5.70;;;;;;;;;;10191733;28;20098;-62
2022/07/22 00:42:48;;;;;;;7.90;6.00;;;;;;;;;;10190869;28;20453;-61
2022/07/22 00:47:41;;;;;;;17.23;6.45;;;;;;;;;;10189053;28;20052;-61
2022/07/22 00:52:35;;;;;;;16.23;6.57;;;;;;;;;;10193001;28;20452;-61
2022/07/22 00:57:29;;;;;;;12.23;6.43;;;;;;;;;;10191320;28;20079;-61
2022/07/22 01:02:22;;;;;;;6.72;5.30;;;;;;;;;;10191008;28;20048;-61
2022/07/22 01:07:17;;;;;;;5.18;4.50;;;;;;;;;;10190962;28;20028;-61
2022/07/22 01:12:11;;;;;;;5.13;4.43;;;;;;;;;;10191960;28;20543;-61
2022/07/22 01:17:05;;;;;;;10.25;5.38;;;;;;;;;;10191791;28;20072;-61
2022/07/22 01:21:58;;;;;;;5.85;5.03;;;;;;;;;;10189785;28;20051;-61
2022/07/22 01:26:52;;;;;;;6.97;5.28;;;;;;;;;;10190623;28;20375;-62
2022/07/22 01:31:46;;;;;;;10.65;5.57;;;;;;;;;;10173766;28;20529;-63
2022/07/22 01:36:39;;;;;;;14.00;6.20;;;;;;;;;;10180250;28;20126;-62
2022/07/22 01:41:33;;;;;;;11.52;6.53;;;;;;;;;;10173022;28;20059;-62
2022/07/22 01:46:26;;;;;;;7.35;6.55;;;;;;;;;;10182055;28;20055;-62
2022/07/22 01:51:21;;;;;;;12.93;7.85;;;;;;;;;;10189043;28;20394;-62
2022/07/22 01:56:14;;;;;;;8.10;7.30;;;;;;;;;;10172568;28;20486;-62
2022/07/22 02:01:13;;;;;;;11.35;9.00;;;;;;;;;;10188215;28;20072;-62
2022/07/22 02:06:07;;;;;;;15.45;7.63;;;;;;;;;;10181901;28;20048;-63
2022/07/22 02:11:02;;;;;;;18.63;8.27;;;;;;;;;;10188043;28;20044;-62
2022/07/22 02:15:56;;;;;;;7.03;6.22;;;;;;;;;;10175745;28;20167;-61
2022/07/22 02:20:51;;;;;;;10.55;6.90;;;;;;;;;;10171490;28;20048;-63
2022/07/22 02:25:44;;;;;;;9.82;7.95;;;;;;;;;;10187718;28;20067;-63
2022/07/22 02:30:38;;;;;;;6.63;5.93;;;;;;;;;;10186859;28;20056;-62
2022/07/22 02:35:33;;;;;;;11.13;6.38;;;;;;;;;;10188795;28;20105;-63
2022/07/22 02:40:28;;;;;;;16.60;6.07;;;;;;;;;;10181555;28;20411;-62
2022/07/22 02:45:24;;;;;;;8.52;5.82;;;;;;;;;;10175773;28;20043;-61
2022/07/22 02:50:19;;;;;;;7.28;5.65;;;;;;;;;;10188311;28;20055;-61
2022/07/22 02:55:13;;;;;;;12.93;7.75;;;;;;;;;;10185927;28;20079;-61
2022/07/22 03:00:11;;;;;;;7.28;5.60;;;;;;;;;;10186546;28;20072;-61
2022/07/22 03:05:05;;;;;;;6.20;5.60;;;;;;;;;;10186610;28;20044;-61
2022/07/22 03:10:08;;;;;;;6.43;5.72;;;;;;;;;;10184081;28;20498;-64
2022/07/22 03:15:03;;;;;;;7.60;5.75;;;;;;;;;;10203260;28;20075;-62
2022/07/22 03:20:02;;;;;;;7.45;5.75;;;;;;;;;;10186398;28;20407;-62
2022/07/22 03:24:57;;;;;;;8.02;5.65;;;;;;;;;;10169375;28;20052;-62
2022/07/22 03:29:50;;;;;;;6.90;6.20;;;;;;;;;;10183060;28;20127;-62
2022/07/22 03:34:44;;;;;;;11.73;6.80;;;;;;;;;;10185643;28;20044;-62
2022/07/22 03:39:39;;;;;;;7.70;6.80;;;;;;;;;;10185357;28;20044;-62
2022/07/22 03:44:33;;;;;;;13.77;7.18;;;;;;;;;;10185943;28;20105;-62
2022/07/22 03:49:29;;;;;;;8.63;6.70;;;;;;;;;;10185586;28;20503;-62
2022/07/22 03:54:22;;;;;;;11.23;7.40;;;;;;;;;;10169033;28;20071;-62
2022/07/22 03:59:16;;;;;;;15.75;8.27;;;;;;;;;;10185048;28;20062;-62
2022/07/22 04:04:10;;;;;;;9.45;6.13;;;;;;;;;;10184540;28;20094;-62
2022/07/22 04:09:07;;;;;;;8.65;6.45;;;;;;;;;;10187253;28;20039;-62
2022/07/22 04:14:02;;;;;;;11.23;6.75;;;;;;;;;;10192618;28;20135;-62
2022/07/22 04:18:58;;;;;;;7.97;6.82;;;;;;;;;;10192434;28;20068;-62
2022/07/22 04:24:08;;;;;;;9.68;6.97;;;;;;;;;;10190214;28;20547;-62
2022/07/22 04:29:03;;;;;;;6.90;6.13;;;;;;;;;;10191995;28;20059;-62
2022/07/22 04:33:57;;;;;;;9.35;5.60;;;;;;;;;;10192702;28;20056;-62
2022/07/22 04:38:50;;;;;;;6.97;6.35;;;;;;;;;;10192404;28;20140;-62
2022/07/22 04:43:45;;;;;;;11.52;6.57;;;;;;;;;;10192308;28;20081;-62
2022/07/22 04:48:39;;;;;;;6.50;5.47;;;;;;;;;;10191518;28;20067;-62
2022/07/22 04:53:32;;;;;;;8.60;5.97;;;;;;;;;;10191662;28;20055;-63
2022/07/22 04:58:43;;;;;;;9.70;6.60;;;;;;;;;;10184732;28;20044;-62
2022/07/22 05:03:41;;;;;;;13.35;5.85;;;;;;;;;;10192567;28;20051;-62
2022/07/22 05:08:37;;;;;;;6.65;6.05;;;;;;;;;;10190901;28;20410;-62
2022/07/22 05:13:31;;;;;;;10.85;6.28;;;;;;;;;;10191307;28;20135;-62
2022/07/22 05:18:25;;;;;;;10.43;5.97;;;;;;;;;;10190123;28;20072;-64
2022/07/22 05:23:19;;;;;;;19.52;7.43;;;;;;;;;;10190191;28;20098;-62
2022/07/22 05:28:14;;;;;;;7.97;5.90;;;;;;;;;;10189486;28;20143;-63
2022/07/22 05:33:10;;;;;;;11.32;5.95;;;;;;;;;;10187227;28;20048;-62
2022/07/22 05:38:27;;;;;;;14.07;5.90;;;;;;;;;;10184764;28;20059;-61
2022/07/22 05:43:22;;;;;;;8.48;5.93;;;;;;;;;;10189282;28;20486;-62
2022/07/22 05:48:16;;;;;;;7.35;6.65;;;;;;;;;;10190837;28;20052;-63
2022/07/22 05:53:12;;;;;;;12.85;8.25;;;;;;;;;;10189759;28;20135;-62
2022/07/22 05:58:06;;;;;;;15.18;8.55;;;;;;;;;;10178634;28;20517;-61
2022/07/22 06:03:00;;;;;;;25.42;9.00;;;;;;;;;;10188598;28;20131;-61
2022/07/22 06:07:54;;;;;;;11.13;7.57;;;;;;;;;;10188727;28;20040;-61
2022/07/22 06:12:59;;;;;;;30.80;9.88;;;;;;;;;;10188292;28;20052;-61
2022/07/22 06:17:52;;;;;;;15.20;8.13;;;;;;;;;;10188252;28;20036;-61
2022/07/22 06:22:45;;;;;;;15.60;7.90;;;;;;;;;;10188013;28;20044;-62
2022/07/22 06:27:39;;;;;;;13.20;7.10;;;;;;;;;;10187728;28;20403;-61
2022/07/22 06:32:32;;;;;;;11.23;7.45;;;;;;;;;;10182995;28;20052;-62
2022/07/22 06:37:26;;;;;;;12.57;6.78;;;;;;;;;;10187862;28;20453;-62
2022/07/22 06:42:40;;;;;;;21.63;7.35;;;;;;;;;;10182862;28;20073;-62
2022/07/22 06:47:50;;;;;;;10.55;7.43;;;;;;;;;;10184272;28;20131;-62
2022/07/22 06:52:45;;;;;;;13.52;6.05;;;;;;;;;;10186348;28;20503;-62
2022/07/22 06:57:39;;;;;;;12.52;7.55;;;;;;;;;;10174165;28;20059;-62
2022/07/22 07:02:34;;;;;;;17.92;9.13;;;;;;;;;;10175274;28;20516;-62
2022/07/22 07:07:29;;;;;;;9.23;5.72;;;;;;;;;;10186793;28;20048;-62
2022/07/22 07:12:25;;;;;;;8.98;5.97;;;;;;;;;;10186519;28;20044;-62
2022/07/22 07:17:48;;;;;;;11.95;5.88;;;;;;;;;;10177134;28;20087;-62
2022/07/22 07:22:41;;;;;;;14.38;6.43;;;;;;;;;;10185995;28;20510;-62
2022/07/22 07:27:35;;;;;;;12.77;6.43;;;;;;;;;;10184840;28;20052;-64
2022/07/22 07:32:32;;;;;;;11.77;5.38;;;;;;;;;;10186255;28;20047;-64
2022/07/22 07:37:27;;;;;;;11.38;6.25;;;;;;;;;;10185186;28;20615;-64
2022/07/22 07:42:25;;;;;;;10.60;6.22;;;;;;;;;;10175421;28;20052;-64
2022/07/22 07:47:20;;;;;;;13.52;6.05;;;;;;;;;;10193870;28;20552;-61
2022/07/22 07:52:15;;;;;;;12.32;5.70;;;;;;;;;;10179737;28;20048;-61
2022/07/22 07:57:10;;;;;;;10.52;6.00;;;;;;;;;;10209629;28;20043;-63
2022/07/22 08:02:06;;;;;;;6.45;5.00;;;;;;;;;;10194135;28;20406;-62
2022/07/22 08:07:00;;;;;;;9.63;5.35;;;;;;;;;;10193818;28;20498;-63
2022/07/22 08:11:54;;;;;;;15.43;6.53;;;;;;;;;;10175760;28;20048;-63
2022/07/22 08:17:00;;;;;;;19.95;6.88;;;;;;;;;;10175616;28;20100;-62
2022/07/22 08:21:54;;;;;;;6.55;5.75;;;;;;;;;;10192753;28;20044;-63
2022/07/22 08:26:57;;;;;;;12.45;6.35;;;;;;;;;;10178592;28;20047;-62
2022/07/22 08:31:51;;;;;;;14.68;5.25;;;;;;;;;;10179360;28;20559;-62
2022/07/22 08:36:46;;;;;;;10.82;5.95;;;;;;;;;;10175160;28;20051;-62
2022/07/22 08:41:41;;;;;;;10.55;6.32;;;;;;;;;;10177630;28;20087;-63
2022/07/22 08:46:36;;;;;;;8.93;5.43;;;;;;;;;;10177517;28;20073;-62
2022/07/22 08:51:57;;;;;;;9.90;5.55;;;;;;;;;;10175685;28;20078;-63
2022/07/22 08:56:54;;;;;;;13.00;6.33;;;;;;;;;;10173741;28;20047;-61
2022/07/22 09:02:09;;;;;;;11.70;5.50;;;;;;;;;;10178786;28;20075;-63
2022/07/22 09:07:06;;;;;;;8.27;6.20;;;;;;;;;;10184282;28;20072;-63
2022/07/22 09:12:06;;;;;;;6.90;5.22;;;;;;;;;;10189263;28;20446;-64
2022/07/22 09:17:25;;;;;;;15.65;6.30;;;;;;;;;;10192676;28;20048;-63
2022/07/22 09:22:41;;;;;;;12.07;5.30;;;;;;;;;;10191986;28;20066;-64
2022/07/22 09:27:51;;;;;;;11.80;5.68;;;;;;;;;;10189579;28;20059;-63
2022/07/22 09:32:54;;;;;;;8.10;5.70;;;;;;;;;;10189876;28;20055;-64
2022/07/22 09:38:05;;;;;;;16.10;5.65;;;;;;;;;;10190217;28;20055;-64
2022/07/22 09:43:08;;;;;;;8.82;5.13;;;;;;;;;;10189977;28;20051;-64
2022/07/22 09:48:04;;;;;;;12.65;4.35;;;;;;;;;;10182017;28;20063;-63
2022/07/22 09:53:11;;;;;;;7.43;3.88;;;;;;;;;;10185650;28;20055;-60
2022/07/22 09:58:11;;;;;;;12.65;4.10;;;;;;;;;;10172602;28;20051;-63
2022/07/22 10:03:07;;;;;;;9.63;3.33;;;;;;;;;;10185085;28;20094;-62
2022/07/22 10:08:04;;;;;;;10.03;3.77;;;;;;;;;;10203408;28;20143;-61
2022/07/22 10:12:59;;;;;;;14.02;4.18;;;;;;;;;;10174273;28;20040;-62
2022/07/22 10:17:56;;;;;;;10.27;3.20;;;;;;;;;;10176508;28;20044;-63
2022/07/22 10:22:57;;;;;;;7.57;3.67;;;;;;;;;;10177376;28;20101;-62
2022/07/22 10:27:55;;;;;;;;;;;;;;;;;;10170227;28;20459;-64
2022/07/22 10:33:13;;;;;;;6.93;3.20;;;;;;;;;;10186171;28;19933;-62
2022/07/22 10:38:08;;;;;;;6.15;3.35;;;;;;;;;;10171459;28;20044;-63
2022/07/22 10:43:03;;;;;;;5.70;2.78;;;;;;;;;;10187800;28;20047;-62
2022/07/22 10:48:00;;;;;;;12.27;3.28;;;;;;;;;;10188344;28;20479;-63
2022/07/22 10:52:56;;;;;;;6.57;3.10;;;;;;;;;;10187909;28;20048;-62
2022/07/22 10:57:50;;;;;;;13.48;3.90;;;;;;;;;;10185465;28;20077;-64
2022/07/22 11:02:44;;;;;;;11.77;3.08;;;;;;;;;;10187013;28;20474;-63
2022/07/22 11:07:46;;;;;;;8.57;3.17;;;;;;;;;;10186773;28;20505;-61
2022/07/22 11:12:40;;;;;;;5.75;2.65;;;;;;;;;;10185941;28;20050;-61
2022/07/22 11:17:35;;;;;;;6.25;2.60;;;;;;;;;;10186244;28;20051;-62
2022/07/22 11:22:29;;;;;;;9.15;4.30;;;;;;;;;;10186372;28;20586;-63
2022/07/22 11:27:25;;;;;;;10.98;2.78;;;;;;;;;;10201407;28;20079;-62
2022/07/22 11:32:41;;;;;;;4.88;2.95;;;;;;;;;;10183885;28;20538;-63
2022/07/22 11:37:36;;;;;;;14.82;2.88;;;;;;;;;;10181852;28;20567;-63
2022/07/22 11:42:28;;;;;;;9.45;2.80;;;;;;;;;;10184434;28;20052;-63
2022/07/22 11:47:23;;;;;;;10.13;3.50;;;;;;;;;;10184696;28;20052;-63
2022/07/22 11:52:17;;;;;;;7.10;2.90;;;;;;;;;;10186864;28;20059;-62
2022/07/22 11:57:13;;;;;;;8.65;3.83;;;;;;;;;;10186040;28;20127;-62
2022/07/22 12:02:11;;;;;;;10.38;3.40;;;;;;;;;;10186270;28;20052;-62
2022/07/22 12:07:06;;;;;;;5.13;3.35;;;;;;;;;;10186233;28;20119;-61
2022/07/22 12:12:00;;;;;;;6.68;3.67;;;;;;;;;;10186172;28;20395;-62
2022/07/22 12:16:58;;;;;;;7.00;3.47;;;;;;;;;;10185251;28;20052;-62
2022/07/22 12:21:57;;;;;;;6.45;2.92;;;;;;;;;;10172531;28;20072;-61
2022/07/22 12:26:50;;;;;;;7.60;3.17;;;;;;;;;;10184562;28;20138;-61
2022/07/22 12:31:45;;;;;;;6.03;3.37;;;;;;;;;;10191462;28;20044;-61
2022/07/22 12:36:38;;;;;;;7.10;3.00;;;;;;;;;;10193098;28;20773;-61
2022/07/22 12:41:33;;;;;;;9.82;3.00;;;;;;;;;;10193519;28;20488;-61
2022/07/22 12:46:27;;;;;;;;;;;;;;;;;;10193920;28;20136;-61
2022/07/22 12:51:20;;;;;;;6.88;3.03;;;;;;;;;;10192539;28;19965;-61
2022/07/22 12:56:15;;;;;;;8.55;3.83;;;;;;;;;;10193052;28;20062;-61
2022/07/22 13:01:09;;;;;;;7.50;3.63;;;;;;;;;;10192218;28;20108;-61
2022/07/22 13:06:05;;;;;;;7.60;3.33;;;;;;;;;;10191871;28;20494;-61
2022/07/22 13:11:00;;;;;;;8.30;3.20;;;;;;;;;;10191592;28;20155;-61
2022/07/22 13:15:56;;;;;;;8.50;2.95;;;;;;;;;;10192201;28;20662;-61
2022/07/22 13:20:51;;;;;;;11.13;4.05;;;;;;;;;;10191952;28;20055;-61
2022/07/22 13:25:45;;;;;;;;;;;;;;;;;;10191257;28;20461;-60
2022/07/22 13:30:42;;;;;;;7.18;3.38;;;;;;;;;;10191501;28;20363;-60
2022/07/22 13:35:37;;;;;;;8.93;3.65;;;;;;;;;;10190934;28;20139;-61
2022/07/22 13:40:30;;;;;;;;;;;;;;;;;;10190992;28;20144;-61
2022/07/22 13:45:24;;;;;;;12.15;3.38;;;;;;;;;;10190558;28;19928;-61
2022/07/22 13:50:18;;;;;;;7.47;4.40;;;;;;;;;;10188646;28;20040;-61
2022/07/22 13:55:13;;;;;;;11.30;4.10;;;;;;;;;;10187600;28;20080;-63
2022/07/22 14:00:10;;;;;;;6.45;3.67;;;;;;;;;;10186996;28;20073;-62
2022/07/22 14:05:08;;;;;;;9.73;4.15;;;;;;;;;;10188674;28;20048;-62
2022/07/22 14:10:04;;;;;;;10.68;4.22;;;;;;;;;;10185815;28;20044;-62
2022/07/22 14:14:58;;;;;;;7.97;3.78;;;;;;;;;;10188686;28;20492;-60
2022/07/22 14:19:56;;;;;;;6.93;3.78;;;;;;;;;;10188456;28;20483;-61
2022/07/22 14:24:53;;;;;;;8.20;3.80;;;;;;;;;;10187710;28;20064;-61
2022/07/22 14:29:48;;;;;;;12.80;3.85;;;;;;;;;;10187604;28;20056;-63
2022/07/22 14:34:42;;;;;;;7.68;3.83;;;;;;;;;;10187964;28;20510;-60
2022/07/22 14:39:36;;;;;;;12.90;5.27;;;;;;;;;;10185871;28;20048;-61
2022/07/22 14:44:30;;;;;;;10.93;4.22;;;;;;;;;;10187648;28;20444;-63
2022/07/22 14:49:24;;;;;;;16.13;4.50;;;;;;;;;;10187814;28;20072;-63
2022/07/22 14:54:18;;;;;;;12.75;4.28;;;;;;;;;;10187176;28;20486;-62
2022/07/22 14:59:12;;;;;;;7.40;5.20;;;;;;;;;;10186799;28;20044;-62
2022/07/22 15:04:07;;;;;;;10.70;4.85;;;;;;;;;;10182927;28;20086;-63
2022/07/22 15:09:02;;;;;;;9.57;5.28;;;;;;;;;;10186081;28;20048;-62
2022/07/22 15:13:57;;;;;;;8.73;4.32;;;;;;;;;;10187699;28;20047;-62
2022/07/22 15:18:50;;;;;;;17.25;5.13;;;;;;;;;;10186229;28;20052;-61
2022/07/22 15:23:46;;;;;;;5.88;5.15;;;;;;;;;;10187362;28;20399;-61
2022/07/22 15:28:42;;;;;;;11.98;4.90;;;;;;;;;;10185006;28;20099;-62
2022/07/22 15:33:37;;;;;;;5.88;4.35;;;;;;;;;;10186573;28;20051;-62
2022/07/22 15:38:31;;;;;;;6.22;4.93;;;;;;;;;;10193897;28;20495;-61
2022/07/22 15:43:25;;;;;;;11.32;4.43;;;;;;;;;;10184963;28;20044;-62
2022/07/22 15:48:19;;;;;;;9.45;4.60;;;;;;;;;;10185383;28;20127;-62
2022/07/22 15:53:13;;;;;;;8.85;5.18;;;;;;;;;;10188364;28;20040;-59
2022/07/22 16:03:19;;;;;;;11.88;5.03;;;;;;;;;;10186947;28;20036;-63
2022/07/22 16:08:19;;;;;;;9.30;5.45;;;;;;;;;;10191731;28;20476;-63
2022/07/22 16:13:14;;;;;;;6.10;4.57;;;;;;;;;;10192808;28;20071;-62
2022/07/22 16:18:09;;;;;;;14.23;4.80;;;;;;;;;;10193635;28;20553;-60
2022/07/22 16:23:03;;;;;;;11.80;5.20;;;;;;;;;;10194204;28;20051;-63
2022/07/22 16:27:57;;;;;;;9.30;5.55;;;;;;;;;;10192699;28;20064;-61
2022/07/22 16:32:51;;;;;;;10.55;5.03;;;;;;;;;;10193702;28;20051;-61
2022/07/22 16:37:49;;;;;;;9.93;4.95;;;;;;;;;;10192764;28;20044;-60
2022/07/22 16:42:43;;;;;;;11.43;4.70;;;;;;;;;;10192128;28;20513;-61
2022/07/22 16:47:36;;;;;;;11.40;5.00;;;;;;;;;;10193157;28;20055;-61
2022/07/22 16:52:31;;;;;;;13.20;4.90;;;;;;;;;;10191924;28;20055;-62
2022/07/22 16:57:32;;;;;;;6.95;4.78;;;;;;;;;;10190100;28;20062;-62
2022/07/22 17:02:26;;;;;;;7.60;5.53;;;;;;;;;;10190278;28;20072;-62
2022/07/22 17:07:21;;;;;;;16.65;5.45;;;;;;;;;;10190375;28;20131;-62
2022/07/22 17:12:14;;;;;;;5.43;4.78;;;;;;;;;;10189928;28;20052;-62
2022/07/22 17:17:08;;;;;;;6.63;4.60;;;;;;;;;;10190334;28;20052;-62
2022/07/22 17:22:03;;;;;;;10.25;5.05;;;;;;;;;;10190200;28;20123;-62
2022/07/22 17:26:56;;;;;;;11.60;5.22;;;;;;;;;;10188494;28;20125;-62
2022/07/22 17:31:51;;;;;;;14.20;5.63;;;;;;;;;;10189164;28;20151;-61
2022/07/22 17:36:46;;;;;;;6.93;5.03;;;;;;;;;;10189593;28;20079;-62
2022/07/22 17:41:40;;;;;;;8.20;4.55;;;;;;;;;;10191464;28;20113;-61
2022/07/22 17:46:32;;;;;;;7.65;5.07;;;;;;;;;;10190444;28;20052;-63
2022/07/22 17:51:26;;;;;;;15.38;5.30;;;;;;;;;;10189036;28;20052;-63
2022/07/22 17:56:19;;;;;;;14.48;4.70;;;;;;;;;;10190461;28;20074;-64
2022/07/22 18:01:23;;;;;;;6.13;5.05;;;;;;;;;;10190464;28;20052;-61
2022/07/22 18:06:17;;;;;;;13.07;5.50;;;;;;;;;;10189420;28;20507;-61
2022/07/22 18:11:13;;;;;;;10.13;5.22;;;;;;;;;;10189267;28;20044;-61
2022/07/22 18:16:07;;;;;;;8.23;4.20;;;;;;;;;;10189666;28;20105;-61
2022/07/22 18:21:02;;;;;;;10.02;5.28;;;;;;;;;;10189441;28;20119;-61
2022/07/22 18:25:56;;;;;;;5.80;5.22;;;;;;;;;;10187345;28;20097;-61
2022/07/22 18:30:50;;;;;;;7.72;4.70;;;;;;;;;;10186880;28;20074;-62
2022/07/22 18:35:44;;;;;;;8.80;4.95;;;;;;;;;;10187062;28;20121;-61
2022/07/22 18:40:38;;;;;;;8.52;4.80;;;;;;;;;;10182477;28;20069;-61
2022/07/22 18:45:34;;;;;;;15.13;5.45;;;;;;;;;;10185414;28;20058;-62
2022/07/22 18:50:30;;;;;;;8.43;5.13;;;;;;;;;;10187964;28;20464;-60
2022/07/22 18:55:24;;;;;;;13.48;5.68;;;;;;;;;;10187462;28;20058;-60
2022/07/22 19:00:20;;;;;;;12.98;6.78;;;;;;;;;;10187561;28;20056;-63
2022/07/22 19:05:14;;;;;;;10.45;5.75;;;;;;;;;;10187814;28;20518;-62
2022/07/22 19:10:10;;;;;;;11.95;5.25;;;;;;;;;;10187600;28;20445;-62
2022/07/22 19:15:06;;;;;;;6.80;5.43;;;;;;;;;;10187529;28;20056;-60
2022/07/22 19:19:59;;;;;;;12.83;6.00;;;;;;;;;;10187951;28;20127;-60
2022/07/22 19:24:54;;;;;;;5.82;5.22;;;;;;;;;;10186497;28;20048;-61
2022/07/22 19:29:48;;;;;;;9.60;5.53;;;;;;;;;;10186793;28;20052;-60
2022/07/22 19:34:42;;;;;;;10.80;5.97;;;;;;;;;;10186399;28;20048;-60
2022/07/22 19:39:35;;;;;;;11.43;5.82;;;;;;;;;;10179756;28;20044;-62
2022/07/22 19:44:29;;;;;;;12.00;6.40;;;;;;;;;;10183103;28;20105;-62
2022/07/22 19:49:24;;;;;;;10.10;5.75;;;;;;;;;;10183007;28;20051;-61
2022/07/22 19:54:18;;;;;;;11.48;5.72;;;;;;;;;;10182325;28;20048;-62
2022/07/22 19:59:13;;;;;;;9.50;5.97;;;;;;;;;;10185332;28;20048;-62
2022/07/22 20:04:07;;;;;;;13.48;6.00;;;;;;;;;;10186661;28;20066;-62
2022/07/22 20:09:01;;;;;;;12.93;6.70;;;;;;;;;;10186414;28;20093;-62
2022/07/22 20:13:54;;;;;;;13.27;6.28;;;;;;;;;;10186571;28;20487;-62
2022/07/22 20:18:49;;;;;;;12.20;7.10;;;;;;;;;;10186300;28;20063;-61
2022/07/22 20:23:47;;;;;;;13.70;6.45;;;;;;;;;;10186580;28;20044;-61
2022/07/22 20:28:41;;;;;;;13.50;6.30;;;;;;;;;;10185914;28;20060;-62
2022/07/22 20:33:34;;;;;;;6.68;5.85;;;;;;;;;;10186013;28;20052;-62
2022/07/22 20:38:28;;;;;;;24.80;7.88;;;;;;;;;;10186630;28;20513;-62
2022/07/22 20:43:22;;;;;;;17.88;7.95;;;;;;;;;;10185862;28;20044;-61
2022/07/22 20:48:16;;;;;;;11.07;6.38;;;;;;;;;;10188843;28;20071;-62
2022/07/22 20:53:10;;;;;;;15.02;6.90;;;;;;;;;;10191324;28;20067;-61
2022/07/22 20:58:05;;;;;;;14.35;6.65;;;;;;;;;;10193474;28;20048;-62
2022/07/22 21:02:59;;;;;;;14.48;6.80;;;;;;;;;;10191608;28;20127;-61
2022/07/22 21:07:53;;;;;;;16.33;7.03;;;;;;;;;;10192649;28;20048;-61
2022/07/22 21:12:51;;;;;;;11.40;7.07;;;;;;;;;;10190874;28;20055;-63
2022/07/22 21:17:45;;;;;;;14.40;6.82;;;;;;;;;;10186038;28;20051;-61
2022/07/22 21:22:39;;;;;;;11.18;6.97;;;;;;;;;;10188026;28;20044;-63
2022/07/22 21:27:34;;;;;;;18.58;8.00;;;;;;;;;;10190974;28;20121;-63
2022/07/22 21:32:29;;;;;;;10.10;7.70;;;;;;;;;;10185856;28;20157;-62
2022/07/22 21:37:22;;;;;;;17.10;7.72;;;;;;;;;;10190129;28;20079;-63
2022/07/22 21:42:16;;;;;;;15.40;8.20;;;;;;;;;;10189538;28;20054;-63
2022/07/22 21:47:10;;;;;;;12.75;7.40;;;;;;;;;;10190287;28;20060;-61
2022/07/22 21:52:03;;;;;;;12.38;7.45;;;;;;;;;;10190618;28;20406;-62
2022/07/22 21:56:57;;;;;;;19.85;6.85;;;;;;;;;;10190558;28;20040;-61
2022/07/22 22:01:54;;;;;;;13.00;7.22;;;;;;;;;;10189551;28;20048;-60
2022/07/22 22:06:48;;;;;;;13.52;7.97;;;;;;;;;;10188623;28;20134;-62
2022/07/22 22:11:43;;;;;;;15.82;7.80;;;;;;;;;;10188729;28;20040;-61
2022/07/22 22:16:37;;;;;;;11.18;8.05;;;;;;;;;;10202815;28;20063;-60
2022/07/22 22:21:35;;;;;;;16.42;7.38;;;;;;;;;;10185650;28;20056;-63
2022/07/22 22:26:28;;;;;;;11.27;7.40;;;;;;;;;;10186277;28;20055;-61
2022/07/22 22:31:23;;;;;;;9.10;7.70;;;;;;;;;;10189310;28;20062;-61
2022/07/22 22:36:18;;;;;;;12.88;7.80;;;;;;;;;;10187972;28;20070;-61
2022/07/22 22:41:12;;;;;;;20.77;7.22;;;;;;;;;;10188324;28;20120;-63
2022/07/22 22:46:06;;;;;;;8.13;7.28;;;;;;;;;;10187581;28;20453;-61
2022/07/22 22:51:00;;;;;;;11.80;8.18;;;;;;;;;;10187771;28;20433;-62
2022/07/22 22:55:55;;;;;;;9.98;6.65;;;;;;;;;;10188561;28;20490;-62
2022/07/22 23:00:49;;;;;;;8.80;7.35;;;;;;;;;;10187872;28;20375;-61
2022/07/22 23:05:44;;;;;;;14.48;7.88;;;;;;;;;;10187850;28;20076;-61
2022/07/22 23:10:38;;;;;;;8.73;7.00;;;;;;;;;;10187522;28;20121;-62
2022/07/22 23:15:32;;;;;;;13.10;7.93;;;;;;;;;;10186785;28;20056;-61
2022/07/22 23:25:39;;;;;;;12.85;7.75;;;;;;;;;;10186636;28;20083;-62
2022/07/22 23:30:44;;;;;;;9.13;7.80;;;;;;;;;;10182957;28;20411;-61
2022/07/22 23:35:39;;;;;;;14.40;8.70;;;;;;;;;;10183884;28;20127;-61
2022/07/22 23:40:33;;;;;;;13.80;8.77;;;;;;;;;;10187310;28;20398;-61
2022/07/22 23:45:26;;;;;;;17.42;8.93;;;;;;;;;;10186320;28;20060;-61
2022/07/22 23:50:21;;;;;;;12.90;8.35;;;;;;;;;;10186774;28;20058;-61
2022/07/22 23:55:15;;;;;;;10.75;8.55;;;;;;;;;;10183304;28;20115;-60
